Pagina principale
METAR-TAF:

METAR-TAF

Aeroporti :

Aeroporto di Garoua

Garoua, Camerun

latitudine: 09-20N, longitudine: 013-23E, altezza: 242 m

Osservazione

Il bollettino è stato emesso 4 ore e 6 minuti fa, alle 23:00 UTC
Vento 4 kt da nord/nord-est
Temperature 26°C
Umidità 20%
Pressione 1012 hPa
Visibilità 10 km o più
nessuna nube inferiore a 1500 m e nessun cumulonembo

METAR: FKKR 232300Z 02004KT CAVOK 26/01 Q1012 NOSIG

Ora: 04:06 (03:06 UTC)

Previsione

Il bollettino è stato emesso 22 ore e 6 minuti fa, alle 05:00 UTC
Previsione valida dal 23 alle 06 UTC al 23 alle 18 UTC
Vento 8 kt da est/nord-est
Visibilità: 8000 m
Temporaneamente
dal 23 alle 10 UTC al 23 alle 18 UTC
Visibilità: 3000 m
foschia

TAF: FKKR 230500Z 2306/2318 06008KT 8000 NSC TEMPO 2310/2318 3000 HZ

Osservazioni e previsioni meteorologiche di più di 4000 aeroporti (messaggi METAR e TAF).

Le stazioni disponibili sono rappresentate dai dischi gialli e rossi sulla carta.

Puntare il mouse per vedere il nome della stazione.

Clicca sopra per visualizzare le osservazioni e previsioni meteorologiche.

Per cambiare la mappa : fare clic sui pulsanti verdi con una croce nera per ingrandire, il pulsante verde con un trattino per diminuire, o sulla freccia verde per le mappe adiacenti.


METAR-TAF: